Longwood, Florida
Current Conditions -  °F | °C
As of 5:53 PM on Wednesday 17 Dec 2014 (Local Time) from KSFB Reporting Station
Clear Clear  
Wind Chill: 63°   Ceiling: Unl
Heat Index: 63°   Visibility: 10mi
Dew Point: 47°   Wind: 3mph
Humidity: 56%   Direction: 350°N
Pressure: 30.11"   Gusts: NA
Location:  28.7°N, 81.35°W
Report Text: KSFB 172253Z 35003KT 10SM CLR 17/08 A3011 RMK AO2 SLP194 T01720083
Loading
Personal Weather Stations






























Interactive Weather Map New forecast layout! Learn more

10-Day Weather Forecast

Advertisements
Track Severe Weather on mobile